createdAt,value
2017-06-18T00:15:07.725Z,100.000
2017-06-18T07:06:44.545Z,100.000
2017-06-18T07:09:27.190Z,100.000
2017-06-18T07:12:21.575Z,100.000
2017-06-18T07:15:16.594Z,100.000
2017-06-18T07:18:11.908Z,100.000
2017-06-18T07:21:07.283Z,100.000
2017-06-18T07:27:14.797Z,100.000
2017-06-18T07:29:59.766Z,100.000
2017-06-18T07:32:54.615Z,100.000
2017-06-18T07:35:49.849Z,100.000
2017-06-18T07:38:45.349Z,100.000
2017-06-18T07:41:40.776Z,100.000
2017-06-18T07:44:36.316Z,100.000
2017-06-18T07:47:31.778Z,100.000
2017-06-18T07:50:27.301Z,100.000
2017-06-18T07:53:22.801Z,100.000
2017-06-18T07:56:18.366Z,100.000
2017-06-18T07:59:13.911Z,100.000
2017-06-18T08:02:09.546Z,100.000
2017-06-18T08:05:05.133Z,100.000
2017-06-18T08:08:01.104Z,100.000
2017-06-18T08:10:56.847Z,100.000
2017-06-18T08:13:52.714Z,100.000
2017-06-18T08:16:48.668Z,100.000
2017-06-18T08:19:44.459Z,100.000
2017-06-18T08:22:40.444Z,100.000
2017-06-18T08:25:36.310Z,100.000
2017-06-18T08:28:32.267Z,100.000
2017-06-18T08:31:28.222Z,100.000
2017-06-18T08:34:24.126Z,100.000
2017-06-18T08:37:19.960Z,100.000
2017-06-18T08:40:15.877Z,100.000
2017-06-18T08:43:11.675Z,100.000
2017-06-18T08:46:07.605Z,100.000
2017-06-18T08:49:03.627Z,100.000
2017-06-18T08:51:59.816Z,100.000
2017-06-18T08:54:55.916Z,100.000
2017-06-18T08:57:52.078Z,100.000
2017-06-18T09:00:48.189Z,100.000
2017-06-18T09:03:44.296Z,100.000
2017-06-18T09:06:40.419Z,96.641
2017-06-18T09:09:36.589Z,95.208
2017-06-18T09:12:32.750Z,100.000
2017-06-18T09:15:28.980Z,100.000
2017-06-18T09:18:25.217Z,98.741
2017-06-18T09:21:21.541Z,91.054
2017-06-18T09:24:17.612Z,89.030
2017-06-18T09:27:13.747Z,87.553
2017-06-18T09:30:09.842Z,87.493
2017-06-18T09:33:05.930Z,86.254
2017-06-18T09:36:01.932Z,85.431
2017-06-18T09:38:58.051Z,75.745
2017-06-18T09:41:54.199Z,71.125
2017-06-18T09:44:50.257Z,77.653
2017-06-18T09:47:46.400Z,74.850
2017-06-18T09:50:42.641Z,72.978
2017-06-18T09:53:38.829Z,71.790
2017-06-18T09:56:34.959Z,58.707
2017-06-18T09:59:31.282Z,71.985
2017-06-18T10:02:27.619Z,68.170
2017-06-18T10:05:23.970Z,65.916
2017-06-18T10:08:20.260Z,63.962
2017-06-18T10:11:16.688Z,58.654
2017-06-18T10:14:13.156Z,57.112
2017-06-18T10:17:09.683Z,45.776
2017-06-18T10:20:05.992Z,55.664
2017-06-18T10:23:02.293Z,46.039
2017-06-18T10:25:58.498Z,50.848
2017-06-18T10:28:54.839Z,53.191
2017-06-18T10:31:50.744Z,49.096
2017-06-18T10:34:46.479Z,51.049
2017-06-18T10:37:42.178Z,52.709
2017-06-18T10:40:37.840Z,52.258
2017-06-18T10:43:33.397Z,46.323
2017-06-18T10:46:28.957Z,51.948
2017-06-18T10:49:24.602Z,50.809
2017-06-18T10:52:20.014Z,59.800
2017-06-18T10:55:15.476Z,68.482
2017-06-18T10:58:10.881Z,65.049
2017-06-18T11:01:06.338Z,66.042
2017-06-18T11:04:01.772Z,73.810
2017-06-18T11:06:57.291Z,76.921
2017-06-18T11:09:52.542Z,72.130
2017-06-18T11:12:47.828Z,75.259
2017-06-18T11:15:43.117Z,82.768
2017-06-18T11:18:38.548Z,74.918
2017-06-18T11:21:33.944Z,84.297
2017-06-18T11:24:29.312Z,81.918
2017-06-18T11:27:26.443Z,84.334
2017-06-18T11:30:20.166Z,82.513
2017-06-18T11:33:15.465Z,88.772
2017-06-18T11:36:12.318Z,88.003
2017-06-18T11:39:05.841Z,86.338
2017-06-18T11:42:00.969Z,95.936
2017-06-18T11:44:56.149Z,91.352
2017-06-18T11:47:51.357Z,90.587
2017-06-18T11:50:48.421Z,91.735
2017-06-18T11:53:41.843Z,95.196
2017-06-18T11:56:38.790Z,91.073
2017-06-18T11:59:32.049Z,97.604
2017-06-18T12:02:27.118Z,100.000
2017-06-18T12:05:23.873Z,99.567
2017-06-18T12:08:17.196Z,100.000
2017-06-18T12:11:12.216Z,100.000
2017-06-18T12:14:07.444Z,100.000
2017-06-18T12:17:02.813Z,100.000
2017-06-18T12:19:58.141Z,100.000
2017-06-18T12:22:53.546Z,100.000
2017-06-18T12:25:50.416Z,100.000
2017-06-18T12:28:44.134Z,100.000
2017-06-18T12:31:39.669Z,100.000
2017-06-18T12:34:34.852Z,100.000
2017-06-18T12:37:30.187Z,100.000
2017-06-18T12:40:25.558Z,100.000
2017-06-18T12:43:20.825Z,100.000
2017-06-18T12:46:16.078Z,100.000
2017-06-18T12:49:11.311Z,100.000
2017-06-18T12:52:06.575Z,100.000
2017-06-18T12:55:01.873Z,100.000
2017-06-18T12:57:57.149Z,100.000
2017-06-18T13:00:52.564Z,100.000
2017-06-18T13:03:48.057Z,100.000
2017-06-18T13:06:44.144Z,100.000
2017-06-18T13:09:38.766Z,100.000
2017-06-18T13:12:34.073Z,100.000
2017-06-18T13:15:29.499Z,100.000
2017-06-18T13:18:24.894Z,100.000
2017-06-18T13:21:20.304Z,100.000
2017-06-18T13:24:15.752Z,100.000
2017-06-18T13:27:11.199Z,100.000
2017-06-18T13:30:06.734Z,100.000
2017-06-18T13:33:02.179Z,100.000
2017-06-18T13:35:57.458Z,100.000
2017-06-18T13:38:54.539Z,100.000
2017-06-18T13:41:48.211Z,100.000
2017-06-18T13:44:43.508Z,100.000
2017-06-18T13:47:40.543Z,100.000
2017-06-18T13:50:34.186Z,100.000
2017-06-18T13:53:29.429Z,100.000
2017-06-18T13:56:24.879Z,100.000
2017-06-18T13:59:20.286Z,100.000
2017-06-18T14:02:15.577Z,100.000
2017-06-18T14:05:10.844Z,100.000
2017-06-18T14:08:06.133Z,100.000
2017-06-18T14:11:03.270Z,100.000
2017-06-18T14:13:56.753Z,100.000
2017-06-18T14:16:52.130Z,100.000
2017-06-18T14:19:47.371Z,100.000
2017-06-18T14:22:42.616Z,100.000
2017-06-18T14:25:37.971Z,100.000
2017-06-18T14:28:33.303Z,100.000
2017-06-18T14:31:28.611Z,100.000
2017-06-18T14:34:23.864Z,100.000
2017-06-18T14:37:19.127Z,100.000
2017-06-18T14:40:14.466Z,100.000
2017-06-18T14:43:09.772Z,100.000
2017-06-18T14:46:05.193Z,100.000
2017-06-18T14:49:00.484Z,100.000
2017-06-18T14:51:55.716Z,100.000
2017-06-18T14:54:51.105Z,100.000
2017-06-18T14:57:46.523Z,100.000
2017-06-18T15:00:41.751Z,100.000
2017-06-18T15:03:37.106Z,100.000
2017-06-18T15:06:32.407Z,100.000
2017-06-18T15:09:27.771Z,100.000
2017-06-18T15:12:23.107Z,100.000
2017-06-18T15:15:18.399Z,100.000
2017-06-18T15:18:13.637Z,100.000
2017-06-18T15:21:08.994Z,100.000
2017-06-18T15:24:04.339Z,100.000
2017-06-18T15:26:59.591Z,100.000
2017-06-18T15:29:55.010Z,100.000
2017-06-18T15:32:50.405Z,100.000
2017-06-18T15:35:45.662Z,100.000
2017-06-18T15:38:41.055Z,100.000
2017-06-18T15:41:36.364Z,100.000
2017-06-18T15:44:31.589Z,100.000
2017-06-18T15:47:26.852Z,100.000
2017-06-18T15:50:22.199Z,100.000
2017-06-18T15:53:17.510Z,100.000
2017-06-18T15:56:12.885Z,100.000
2017-06-18T15:59:08.203Z,100.000
2017-06-18T16:02:05.272Z,100.000
2017-06-18T16:04:58.815Z,100.000
2017-06-18T16:07:54.078Z,100.000
2017-06-18T16:10:49.424Z,100.000
2017-06-18T16:13:44.644Z,100.000
2017-06-18T16:16:40.235Z,100.000
2017-06-18T16:19:35.564Z,100.000
2017-06-18T16:22:30.839Z,100.000
2017-06-18T16:25:26.215Z,100.000
2017-06-18T16:28:21.534Z,100.000
2017-06-18T16:31:16.916Z,100.000
2017-06-18T16:38:32.065Z,100.000
2017-06-18T16:41:29.650Z,100.000
2017-06-18T16:44:17.685Z,100.000
2017-06-18T16:47:23.972Z,100.000
2017-06-18T16:52:07.345Z,100.000
2017-06-18T16:59:01.023Z,100.000
2017-06-18T17:01:56.598Z,100.000
2017-06-18T17:05:09.037Z,100.000
2017-06-18T17:10:46.733Z,100.000
2017-06-18T17:24:26.823Z,100.000
2017-06-18T17:27:10.832Z,100.000
2017-06-18T17:30:05.077Z,100.000
2017-06-18T17:33:01.596Z,100.000
2017-06-18T17:35:55.045Z,100.000
2017-06-18T17:38:51.925Z,100.000
2017-06-18T17:41:47.237Z,100.000
2017-06-18T17:44:42.422Z,100.000
2017-06-18T17:48:21.198Z,100.000
2017-06-18T17:51:07.981Z,100.000
2017-06-18T17:54:02.889Z,100.000
2017-06-18T17:57:00.064Z,100.000
2017-06-18T17:59:53.512Z,100.000
2017-06-18T18:05:38.262Z,100.000
2017-06-18T18:09:08.328Z,100.000
2017-06-18T18:11:54.605Z,100.000
2017-06-18T18:15:23.387Z,100.000
2017-06-18T18:18:10.589Z,100.000
2017-06-18T18:27:18.482Z,100.000
2017-06-18T18:30:02.689Z,100.000
2017-06-18T18:32:57.028Z,100.000
2017-06-18T18:35:51.913Z,100.000
2017-06-18T18:38:58.355Z,100.000
2017-06-18T18:41:48.821Z,100.000
2017-06-18T18:44:44.066Z,100.000
2017-06-18T18:47:39.235Z,100.000
2017-06-18T18:50:34.492Z,100.000
2017-06-18T18:54:39.462Z,100.000
2017-06-18T19:09:49.290Z,100.000
2017-06-18T19:12:33.295Z,100.000
2017-06-18T19:15:29.176Z,100.000
2017-06-18T19:18:22.352Z,100.000
2017-06-18T19:21:17.469Z,100.000
2017-06-18T19:24:46.580Z,100.000
2017-06-18T19:51:41.829Z,100.000
